sensor_id;sensor_type;location;lat;lon;timestamp;pressure;altitude;pressure_sealevel;temperature;humidity
63306;BME280;50735;52.060;1.248;2022-08-19T00:01:56;100970.79;;;19.24;50.73
63306;BME280;50735;52.060;1.248;2022-08-19T00:04:26;100971.08;;;19.50;50.35
63306;BME280;50735;52.060;1.248;2022-08-19T00:06:53;100973.10;;;19.41;50.17
63306;BME280;50735;52.060;1.248;2022-08-19T00:09:21;100973.63;;;19.58;50.13
63306;BME280;50735;52.060;1.248;2022-08-19T00:11:50;100974.03;;;19.54;49.81
63306;BME280;50735;52.060;1.248;2022-08-19T00:14:17;100975.15;;;19.75;49.74
63306;BME280;50735;52.060;1.248;2022-08-19T00:16:46;100980.49;;;19.48;49.84
63306;BME280;50735;52.060;1.248;2022-08-19T00:19:14;100981.57;;;19.56;50.03
63306;BME280;50735;52.060;1.248;2022-08-19T00:21:41;100984.98;;;19.38;50.43
63306;BME280;50735;52.060;1.248;2022-08-19T00:24:11;100982.09;;;18.97;50.84
63306;BME280;50735;52.060;1.248;2022-08-19T00:26:39;100981.96;;;18.90;50.56
63306;BME280;50735;52.060;1.248;2022-08-19T00:29:08;100985.90;;;19.00;50.45
63306;BME280;50735;52.060;1.248;2022-08-19T00:31:35;100985.97;;;19.40;50.42
63306;BME280;50735;52.060;1.248;2022-08-19T00:34:03;100985.72;;;19.32;50.46
63306;BME280;50735;52.060;1.248;2022-08-19T00:36:30;100984.47;;;19.43;50.21
63306;BME280;50735;52.060;1.248;2022-08-19T00:38:57;100982.15;;;19.27;50.24
63306;BME280;50735;52.060;1.248;2022-08-19T00:41:24;100976.21;;;19.56;50.00
63306;BME280;50735;52.060;1.248;2022-08-19T00:44:01;100971.68;;;19.49;49.84
63306;BME280;50735;52.060;1.248;2022-08-19T00:46:30;100972.47;;;19.56;49.94
63306;BME280;50735;52.060;1.248;2022-08-19T00:48:57;100975.36;;;19.48;50.07
63306;BME280;50735;52.060;1.248;2022-08-19T00:51:24;100984.56;;;19.48;50.11
63306;BME280;50735;52.060;1.248;2022-08-19T00:53:53;100989.08;;;19.53;50.07
63306;BME280;50735;52.060;1.248;2022-08-19T00:56:21;100991.11;;;19.30;50.49
63306;BME280;50735;52.060;1.248;2022-08-19T00:58:48;100992.72;;;19.39;50.31
63306;BME280;50735;52.060;1.248;2022-08-19T01:01:15;100990.99;;;19.34;50.44
63306;BME280;50735;52.060;1.248;2022-08-19T01:03:42;100993.35;;;19.31;50.54
63306;BME280;50735;52.060;1.248;2022-08-19T01:06:09;100993.52;;;19.13;50.95
63306;BME280;50735;52.060;1.248;2022-08-19T01:08:35;100990.53;;;19.25;50.61
63306;BME280;50735;52.060;1.248;2022-08-19T01:11:03;100990.64;;;19.18;50.76
63306;BME280;50735;52.060;1.248;2022-08-19T01:13:33;100992.16;;;19.04;50.66
63306;BME280;50735;52.060;1.248;2022-08-19T01:16:03;100989.73;;;19.04;50.89
63306;BME280;50735;52.060;1.248;2022-08-19T01:18:32;100991.65;;;18.92;51.01
63306;BME280;50735;52.060;1.248;2022-08-19T01:21:05;100989.57;;;18.62;51.81
63306;BME280;50735;52.060;1.248;2022-08-19T01:23:34;100989.24;;;18.61;52.00
63306;BME280;50735;52.060;1.248;2022-08-19T01:26:00;100988.88;;;18.78;51.50
63306;BME280;50735;52.060;1.248;2022-08-19T01:28:27;100992.70;;;18.76;51.69
63306;BME280;50735;52.060;1.248;2022-08-19T01:30:55;100993.15;;;18.82;51.46
63306;BME280;50735;52.060;1.248;2022-08-19T01:33:22;100994.42;;;18.89;51.85
63306;BME280;50735;52.060;1.248;2022-08-19T01:35:50;100991.76;;;18.74;52.02
63306;BME280;50735;52.060;1.248;2022-08-19T01:38:22;100993.33;;;18.55;52.02
63306;BME280;50735;52.060;1.248;2022-08-19T01:40:49;100989.57;;;18.45;52.39
63306;BME280;50735;52.060;1.248;2022-08-19T01:43:15;100989.15;;;18.39;52.47
63306;BME280;50735;52.060;1.248;2022-08-19T01:45:42;100987.70;;;18.50;52.88
63306;BME280;50735;52.060;1.248;2022-08-19T01:48:09;100987.92;;;18.60;52.07
63306;BME280;50735;52.060;1.248;2022-08-19T01:50:37;100987.73;;;18.72;52.04
63306;BME280;50735;52.060;1.248;2022-08-19T01:53:07;100984.73;;;19.04;51.67
63306;BME280;50735;52.060;1.248;2022-08-19T01:55:35;100986.03;;;18.96;51.60
63306;BME280;50735;52.060;1.248;2022-08-19T01:58:05;100989.92;;;18.94;51.44
63306;BME280;50735;52.060;1.248;2022-08-19T02:00:34;100990.28;;;18.95;51.51
63306;BME280;50735;52.060;1.248;2022-08-19T02:03:01;100994.23;;;18.90;51.58
63306;BME280;50735;52.060;1.248;2022-08-19T02:05:29;100995.85;;;19.07;51.70
63306;BME280;50735;52.060;1.248;2022-08-19T02:07:56;100997.90;;;18.70;52.24
63306;BME280;50735;52.060;1.248;2022-08-19T02:10:24;101001.37;;;18.83;51.83
63306;BME280;50735;52.060;1.248;2022-08-19T02:12:51;100998.92;;;18.63;52.03
63306;BME280;50735;52.060;1.248;2022-08-19T02:15:19;100999.23;;;18.76;52.14
63306;BME280;50735;52.060;1.248;2022-08-19T02:17:46;101001.86;;;18.80;52.73
63306;BME280;50735;52.060;1.248;2022-08-19T02:20:14;101002.68;;;18.66;52.37
63306;BME280;50735;52.060;1.248;2022-08-19T02:22:42;101007.97;;;18.66;52.49
63306;BME280;50735;52.060;1.248;2022-08-19T02:25:10;101006.39;;;18.60;53.18
63306;BME280;50735;52.060;1.248;2022-08-19T02:27:37;101013.11;;;18.63;53.68
63306;BME280;50735;52.060;1.248;2022-08-19T02:30:06;101008.23;;;18.59;53.35
63306;BME280;50735;52.060;1.248;2022-08-19T02:32:34;101015.29;;;18.30;53.63
63306;BME280;50735;52.060;1.248;2022-08-19T02:35:02;101009.38;;;18.56;53.44
63306;BME280;50735;52.060;1.248;2022-08-19T02:37:29;101005.44;;;18.73;53.05
63306;BME280;50735;52.060;1.248;2022-08-19T02:39:56;101004.50;;;18.76;53.17
63306;BME280;50735;52.060;1.248;2022-08-19T02:42:24;101005.14;;;18.59;52.99
63306;BME280;50735;52.060;1.248;2022-08-19T02:44:51;101006.03;;;18.69;52.99
63306;BME280;50735;52.060;1.248;2022-08-19T02:47:18;101009.88;;;18.88;52.93
63306;BME280;50735;52.060;1.248;2022-08-19T02:49:45;101019.48;;;19.02;52.61
63306;BME280;50735;52.060;1.248;2022-08-19T02:52:13;101018.50;;;18.88;52.49
63306;BME280;50735;52.060;1.248;2022-08-19T02:54:39;101015.61;;;19.11;52.60
63306;BME280;50735;52.060;1.248;2022-08-19T02:57:06;101013.41;;;19.15;52.62
63306;BME280;50735;52.060;1.248;2022-08-19T02:59:33;101014.42;;;18.98;52.30
63306;BME280;50735;52.060;1.248;2022-08-19T03:02:00;101016.65;;;18.92;52.71
63306;BME280;50735;52.060;1.248;2022-08-19T03:04:28;101016.81;;;18.85;52.91
63306;BME280;50735;52.060;1.248;2022-08-19T03:06:55;101020.58;;;19.03;53.00
63306;BME280;50735;52.060;1.248;2022-08-19T03:09:22;101017.35;;;18.63;53.41
63306;BME280;50735;52.060;1.248;2022-08-19T03:11:49;101014.52;;;18.82;53.49
63306;BME280;50735;52.060;1.248;2022-08-19T03:14:16;101013.39;;;18.74;53.32
63306;BME280;50735;52.060;1.248;2022-08-19T03:16:46;101013.40;;;18.98;53.55
63306;BME280;50735;52.060;1.248;2022-08-19T03:19:16;101017.56;;;18.57;53.65
63306;BME280;50735;52.060;1.248;2022-08-19T03:21:44;101020.14;;;18.73;54.07
63306;BME280;50735;52.060;1.248;2022-08-19T03:24:13;101027.76;;;18.47;54.14
63306;BME280;50735;52.060;1.248;2022-08-19T03:26:43;101022.53;;;18.67;54.15
63306;BME280;50735;52.060;1.248;2022-08-19T03:29:11;101018.75;;;18.47;54.13
63306;BME280;50735;52.060;1.248;2022-08-19T03:31:39;101024.04;;;18.69;54.10
63306;BME280;50735;52.060;1.248;2022-08-19T03:34:07;101028.97;;;18.40;54.27
63306;BME280;50735;52.060;1.248;2022-08-19T03:36:34;101020.04;;;18.90;54.29
63306;BME280;50735;52.060;1.248;2022-08-19T03:39:01;101021.10;;;18.80;54.05
63306;BME280;50735;52.060;1.248;2022-08-19T03:41:31;101026.03;;;18.76;54.66
63306;BME280;50735;52.060;1.248;2022-08-19T03:43:58;101022.70;;;18.69;54.28
63306;BME280;50735;52.060;1.248;2022-08-19T03:46:28;101022.90;;;18.80;54.62
63306;BME280;50735;52.060;1.248;2022-08-19T03:48:58;101024.04;;;18.61;54.50
63306;BME280;50735;52.060;1.248;2022-08-19T03:51:27;101020.95;;;18.47;54.48
63306;BME280;50735;52.060;1.248;2022-08-19T03:53:55;101022.99;;;18.61;54.79
63306;BME280;50735;52.060;1.248;2022-08-19T03:56:22;101020.13;;;18.48;54.49
63306;BME280;50735;52.060;1.248;2022-08-19T03:58:49;101024.63;;;18.36;54.63
63306;BME280;50735;52.060;1.248;2022-08-19T04:01:20;101025.04;;;18.67;54.58
63306;BME280;50735;52.060;1.248;2022-08-19T04:03:48;101021.92;;;18.76;54.49
63306;BME280;50735;52.060;1.248;2022-08-19T04:06:18;101022.56;;;18.93;54.47
63306;BME280;50735;52.060;1.248;2022-08-19T04:08:46;101025.24;;;18.75;54.28
63306;BME280;50735;52.060;1.248;2022-08-19T04:11:16;101024.35;;;18.56;54.36
63306;BME280;50735;52.060;1.248;2022-08-19T04:13:43;101021.57;;;18.80;54.15
63306;BME280;50735;52.060;1.248;2022-08-19T04:16:10;101018.45;;;19.03;54.26
63306;BME280;50735;52.060;1.248;2022-08-19T04:18:38;101017.05;;;18.64;54.07
63306;BME280;50735;52.060;1.248;2022-08-19T04:21:07;101014.64;;;18.56;54.39
63306;BME280;50735;52.060;1.248;2022-08-19T04:23:35;101012.68;;;18.77;54.51
63306;BME280;50735;52.060;1.248;2022-08-19T04:26:02;101018.07;;;18.67;55.52
63306;BME280;50735;52.060;1.248;2022-08-19T04:28:29;101020.28;;;18.44;55.37
63306;BME280;50735;52.060;1.248;2022-08-19T04:30:56;101013.51;;;18.48;55.11
63306;BME280;50735;52.060;1.248;2022-08-19T04:33:25;101008.45;;;18.51;55.12
63306;BME280;50735;52.060;1.248;2022-08-19T04:35:52;101005.46;;;18.76;55.02
63306;BME280;50735;52.060;1.248;2022-08-19T04:38:21;101006.85;;;18.65;54.81
63306;BME280;50735;52.060;1.248;2022-08-19T04:40:50;101006.67;;;18.72;54.65
63306;BME280;50735;52.060;1.248;2022-08-19T04:43:17;101009.09;;;18.93;54.61
63306;BME280;50735;52.060;1.248;2022-08-19T04:45:45;101012.11;;;18.92;54.86
63306;BME280;50735;52.060;1.248;2022-08-19T04:48:13;101010.38;;;18.63;55.03
63306;BME280;50735;52.060;1.248;2022-08-19T04:50:42;101010.50;;;18.81;55.05
63306;BME280;50735;52.060;1.248;2022-08-19T04:53:09;101014.73;;;18.46;55.10
63306;BME280;50735;52.060;1.248;2022-08-19T04:55:39;101018.06;;;18.75;55.00
63306;BME280;50735;52.060;1.248;2022-08-19T04:58:06;101021.21;;;18.96;54.61
63306;BME280;50735;52.060;1.248;2022-08-19T05:00:34;101022.72;;;18.80;54.61
63306;BME280;50735;52.060;1.248;2022-08-19T05:03:01;101025.93;;;18.83;54.57
63306;BME280;50735;52.060;1.248;2022-08-19T05:05:28;101029.25;;;18.85;54.73
63306;BME280;50735;52.060;1.248;2022-08-19T05:07:56;101030.40;;;19.01;54.79
63306;BME280;50735;52.060;1.248;2022-08-19T05:10:22;101028.75;;;19.02;54.68
63306;BME280;50735;52.060;1.248;2022-08-19T05:12:49;101026.98;;;19.01;54.57
63306;BME280;50735;52.060;1.248;2022-08-19T05:15:16;101025.32;;;19.04;54.95
63306;BME280;50735;52.060;1.248;2022-08-19T05:17:43;101026.35;;;18.99;54.99
63306;BME280;50735;52.060;1.248;2022-08-19T05:20:10;101025.41;;;18.53;54.84
63306;BME280;50735;52.060;1.248;2022-08-19T05:22:38;101023.12;;;18.89;55.03
63306;BME280;50735;52.060;1.248;2022-08-19T05:25:07;101026.77;;;18.67;55.40
63306;BME280;50735;52.060;1.248;2022-08-19T05:27:35;101027.26;;;18.39;55.37
63306;BME280;50735;52.060;1.248;2022-08-19T05:30:03;101033.23;;;18.79;55.39
63306;BME280;50735;52.060;1.248;2022-08-19T05:32:30;101036.14;;;18.55;56.11
63306;BME280;50735;52.060;1.248;2022-08-19T05:34:58;101038.01;;;18.67;56.36
63306;BME280;50735;52.060;1.248;2022-08-19T05:37:24;101036.91;;;18.66;55.96
63306;BME280;50735;52.060;1.248;2022-08-19T05:39:51;101044.09;;;18.58;56.69
63306;BME280;50735;52.060;1.248;2022-08-19T05:42:17;101044.85;;;18.42;56.61
63306;BME280;50735;52.060;1.248;2022-08-19T05:44:45;101046.24;;;18.64;56.64
63306;BME280;50735;52.060;1.248;2022-08-19T05:47:13;101044.57;;;18.40;56.53
63306;BME280;50735;52.060;1.248;2022-08-19T05:49:41;101047.74;;;18.41;56.58
63306;BME280;50735;52.060;1.248;2022-08-19T05:52:11;101048.17;;;18.39;56.71
63306;BME280;50735;52.060;1.248;2022-08-19T05:54:40;101052.58;;;18.54;57.06
63306;BME280;50735;52.060;1.248;2022-08-19T05:57:08;101052.59;;;18.44;56.82
63306;BME280;50735;52.060;1.248;2022-08-19T05:59:36;101053.40;;;18.67;56.55
63306;BME280;50735;52.060;1.248;2022-08-19T06:02:04;101057.52;;;18.69;56.71
63306;BME280;50735;52.060;1.248;2022-08-19T06:04:33;101057.24;;;18.68;57.00
63306;BME280;50735;52.060;1.248;2022-08-19T06:06:59;101054.55;;;18.35;57.43
63306;BME280;50735;52.060;1.248;2022-08-19T06:09:27;101055.11;;;18.61;57.42
63306;BME280;50735;52.060;1.248;2022-08-19T06:11:56;101055.02;;;18.45;57.24
63306;BME280;50735;52.060;1.248;2022-08-19T06:14:25;101054.12;;;18.80;56.87
63306;BME280;50735;52.060;1.248;2022-08-19T06:16:53;101050.28;;;18.60;57.29
63306;BME280;50735;52.060;1.248;2022-08-19T06:19:22;101050.73;;;18.42;57.84
63306;BME280;50735;52.060;1.248;2022-08-19T06:21:50;101049.67;;;18.18;58.62
63306;BME280;50735;52.060;1.248;2022-08-19T06:24:22;101044.68;;;18.09;58.36
63306;BME280;50735;52.060;1.248;2022-08-19T06:26:51;101045.26;;;18.16;58.69
63306;BME280;50735;52.060;1.248;2022-08-19T06:29:20;101043.62;;;18.55;58.27
63306;BME280;50735;52.060;1.248;2022-08-19T06:31:49;101043.95;;;18.37;58.51
63306;BME280;50735;52.060;1.248;2022-08-19T06:34:17;101041.36;;;18.40;58.77
63306;BME280;50735;52.060;1.248;2022-08-19T06:36:46;101041.23;;;18.74;58.41
63306;BME280;50735;52.060;1.248;2022-08-19T06:39:15;101032.21;;;18.62;58.09
63306;BME280;50735;52.060;1.248;2022-08-19T06:41:44;101034.09;;;18.64;57.56
63306;BME280;50735;52.060;1.248;2022-08-19T06:44:11;101038.03;;;18.53;57.57
63306;BME280;50735;52.060;1.248;2022-08-19T06:46:40;101035.42;;;18.70;57.17
63306;BME280;50735;52.060;1.248;2022-08-19T06:49:08;101040.30;;;19.32;56.03
63306;BME280;50735;52.060;1.248;2022-08-19T06:51:35;101042.33;;;19.60;55.12
63306;BME280;50735;52.060;1.248;2022-08-19T06:54:02;101046.47;;;19.15;55.67
63306;BME280;50735;52.060;1.248;2022-08-19T06:56:30;101047.91;;;19.43;55.56
63306;BME280;50735;52.060;1.248;2022-08-19T06:58:58;101053.21;;;19.65;55.80
63306;BME280;50735;52.060;1.248;2022-08-19T07:01:25;101053.08;;;19.24;56.24
63306;BME280;50735;52.060;1.248;2022-08-19T07:03:52;101049.79;;;19.76;56.41
63306;BME280;50735;52.060;1.248;2022-08-19T07:06:20;101046.08;;;19.48;56.15
63306;BME280;50735;52.060;1.248;2022-08-19T07:08:47;101041.16;;;19.10;56.24
63306;BME280;50735;52.060;1.248;2022-08-19T07:11:16;101040.16;;;19.53;56.19
63306;BME280;50735;52.060;1.248;2022-08-19T07:13:45;101043.11;;;19.24;56.12
63306;BME280;50735;52.060;1.248;2022-08-19T07:16:14;101056.63;;;19.14;56.60
63306;BME280;50735;52.060;1.248;2022-08-19T07:18:42;101058.83;;;18.67;57.79
63306;BME280;50735;52.060;1.248;2022-08-19T07:21:11;101057.83;;;18.86;57.41
63306;BME280;50735;52.060;1.248;2022-08-19T07:23:38;101058.69;;;19.00;57.11
63306;BME280;50735;52.060;1.248;2022-08-19T07:26:09;101060.43;;;18.87;57.27
63306;BME280;50735;52.060;1.248;2022-08-19T07:28:36;101065.07;;;19.24;56.86
63306;BME280;50735;52.060;1.248;2022-08-19T07:31:04;101069.77;;;19.08;56.79
63306;BME280;50735;52.060;1.248;2022-08-19T07:33:31;101065.25;;;19.18;57.19
63306;BME280;50735;52.060;1.248;2022-08-19T07:35:59;101065.73;;;19.07;57.62
63306;BME280;50735;52.060;1.248;2022-08-19T07:38:26;101065.06;;;19.14;57.46
63306;BME280;50735;52.060;1.248;2022-08-19T07:40:52;101063.45;;;19.19;57.39
63306;BME280;50735;52.060;1.248;2022-08-19T07:43:19;101063.27;;;19.25;57.02
63306;BME280;50735;52.060;1.248;2022-08-19T07:45:45;101058.36;;;19.45;56.54
63306;BME280;50735;52.060;1.248;2022-08-19T07:48:12;101067.67;;;19.49;56.22
63306;BME280;50735;52.060;1.248;2022-08-19T07:50:40;101069.09;;;19.71;55.67
63306;BME280;50735;52.060;1.248;2022-08-19T07:53:07;101066.47;;;19.80;55.10
63306;BME280;50735;52.060;1.248;2022-08-19T07:55:33;101066.89;;;19.63;55.45
63306;BME280;50735;52.060;1.248;2022-08-19T07:58:00;101070.15;;;19.54;55.63
63306;BME280;50735;52.060;1.248;2022-08-19T08:00:26;101067.10;;;18.96;56.33
63306;BME280;50735;52.060;1.248;2022-08-19T08:02:54;101064.54;;;19.50;55.87
63306;BME280;50735;52.060;1.248;2022-08-19T08:05:21;101065.99;;;19.56;55.70
63306;BME280;50735;52.060;1.248;2022-08-19T08:07:48;101066.04;;;19.71;55.16
63306;BME280;50735;52.060;1.248;2022-08-19T08:10:15;101072.22;;;19.63;55.03
63306;BME280;50735;52.060;1.248;2022-08-19T08:12:42;101073.75;;;19.64;55.31
63306;BME280;50735;52.060;1.248;2022-08-19T08:15:12;101071.99;;;19.81;54.65
63306;BME280;50735;52.060;1.248;2022-08-19T08:17:40;101072.38;;;20.14;53.88
63306;BME280;50735;52.060;1.248;2022-08-19T08:20:08;101078.56;;;20.16;53.73
63306;BME280;50735;52.060;1.248;2022-08-19T08:22:35;101079.30;;;19.93;52.55
63306;BME280;50735;52.060;1.248;2022-08-19T08:25:05;101078.75;;;20.07;52.67
63306;BME280;50735;52.060;1.248;2022-08-19T08:27:35;101079.50;;;20.06;52.29
63306;BME280;50735;52.060;1.248;2022-08-19T08:30:03;101074.82;;;20.52;51.69
63306;BME280;50735;52.060;1.248;2022-08-19T08:32:30;101072.96;;;20.77;51.38
63306;BME280;50735;52.060;1.248;2022-08-19T08:34:57;101076.44;;;20.80;51.01
63306;BME280;50735;52.060;1.248;2022-08-19T08:37:24;101079.56;;;20.81;50.93
63306;BME280;50735;52.060;1.248;2022-08-19T08:39:52;101076.73;;;20.78;50.89
63306;BME280;50735;52.060;1.248;2022-08-19T08:42:24;101078.03;;;20.81;50.82
63306;BME280;50735;52.060;1.248;2022-08-19T08:44:59;101080.15;;;21.01;50.41
63306;BME280;50735;52.060;1.248;2022-08-19T08:47:31;101078.89;;;20.86;50.35
63306;BME280;50735;52.060;1.248;2022-08-19T08:50:03;101077.15;;;20.92;49.83
63306;BME280;50735;52.060;1.248;2022-08-19T08:52:34;101072.35;;;20.56;49.91
63306;BME280;50735;52.060;1.248;2022-08-19T08:55:07;101072.46;;;20.73;49.46
63306;BME280;50735;52.060;1.248;2022-08-19T08:57:38;101070.31;;;20.25;50.29
63306;BME280;50735;52.060;1.248;2022-08-19T09:00:10;101075.03;;;20.60;49.94
63306;BME280;50735;52.060;1.248;2022-08-19T09:02:38;101081.47;;;20.85;49.70
63306;BME280;50735;52.060;1.248;2022-08-19T09:05:06;101082.50;;;21.12;49.55
63306;BME280;50735;52.060;1.248;2022-08-19T09:07:45;101078.00;;;21.40;49.34
63306;BME280;50735;52.060;1.248;2022-08-19T09:10:22;101079.36;;;21.27;48.40
63306;BME280;50735;52.060;1.248;2022-08-19T09:13:13;101091.28;;;21.18;47.76
63306;BME280;50735;52.060;1.248;2022-08-19T09:15:46;101089.14;;;21.30;47.29
63306;BME280;50735;52.060;1.248;2022-08-19T09:18:15;101089.83;;;20.93;47.68
63306;BME280;50735;52.060;1.248;2022-08-19T09:20:42;101091.78;;;21.15;47.85
63306;BME280;50735;52.060;1.248;2022-08-19T09:23:09;101092.03;;;21.69;45.99
63306;BME280;50735;52.060;1.248;2022-08-19T09:25:36;101094.61;;;22.01;44.80
63306;BME280;50735;52.060;1.248;2022-08-19T09:28:03;101095.38;;;21.90;44.24
63306;BME280;50735;52.060;1.248;2022-08-19T09:30:33;101093.92;;;22.16;43.49
63306;BME280;50735;52.060;1.248;2022-08-19T09:33:00;101097.50;;;22.47;43.71
63306;BME280;50735;52.060;1.248;2022-08-19T09:35:29;101099.91;;;22.18;42.63
63306;BME280;50735;52.060;1.248;2022-08-19T09:37:57;101094.17;;;22.35;41.96
63306;BME280;50735;52.060;1.248;2022-08-19T09:40:24;101095.66;;;22.45;42.02
63306;BME280;50735;52.060;1.248;2022-08-19T09:42:51;101098.79;;;22.32;41.48
63306;BME280;50735;52.060;1.248;2022-08-19T09:45:20;101099.37;;;21.64;41.41
63306;BME280;50735;52.060;1.248;2022-08-19T09:47:48;101094.91;;;22.31;40.75
63306;BME280;50735;52.060;1.248;2022-08-19T09:50:14;101099.45;;;22.03;40.80
63306;BME280;50735;52.060;1.248;2022-08-19T09:52:42;101097.41;;;22.63;40.21
63306;BME280;50735;52.060;1.248;2022-08-19T09:55:10;101094.70;;;22.99;39.66
63306;BME280;50735;52.060;1.248;2022-08-19T09:57:37;101089.44;;;23.20;38.93
63306;BME280;50735;52.060;1.248;2022-08-19T10:00:07;101084.85;;;23.20;39.02
63306;BME280;50735;52.060;1.248;2022-08-19T10:02:35;101094.54;;;23.02;39.04
63306;BME280;50735;52.060;1.248;2022-08-19T10:05:02;101088.28;;;22.89;38.88
63306;BME280;50735;52.060;1.248;2022-08-19T10:07:29;101085.27;;;22.65;38.82
63306;BME280;50735;52.060;1.248;2022-08-19T10:09:56;101085.73;;;22.34;39.61
63306;BME280;50735;52.060;1.248;2022-08-19T10:12:23;101087.55;;;21.77;40.93
63306;BME280;50735;52.060;1.248;2022-08-19T10:14:50;101087.31;;;21.63;40.09
63306;BME280;50735;52.060;1.248;2022-08-19T10:17:18;101088.58;;;22.14;39.62
63306;BME280;50735;52.060;1.248;2022-08-19T10:19:45;101085.70;;;22.53;38.57
63306;BME280;50735;52.060;1.248;2022-08-19T10:22:12;101085.66;;;22.34;38.48
63306;BME280;50735;52.060;1.248;2022-08-19T10:24:40;101081.85;;;22.21;39.25
63306;BME280;50735;52.060;1.248;2022-08-19T10:27:07;101081.01;;;22.45;38.98
63306;BME280;50735;52.060;1.248;2022-08-19T10:29:33;101079.98;;;22.67;38.86
63306;BME280;50735;52.060;1.248;2022-08-19T10:32:03;101076.06;;;22.42;38.92
63306;BME280;50735;52.060;1.248;2022-08-19T10:34:31;101077.06;;;22.70;38.65
63306;BME280;50735;52.060;1.248;2022-08-19T10:36:59;101080.31;;;22.65;38.64
63306;BME280;50735;52.060;1.248;2022-08-19T10:39:26;101079.47;;;22.56;38.10
63306;BME280;50735;52.060;1.248;2022-08-19T10:41:53;101084.62;;;22.73;38.12
63306;BME280;50735;52.060;1.248;2022-08-19T10:44:19;101082.72;;;23.02;38.06
63306;BME280;50735;52.060;1.248;2022-08-19T10:46:46;101079.62;;;23.82;37.37
63306;BME280;50735;52.060;1.248;2022-08-19T10:49:13;101083.55;;;24.42;36.17
63306;BME280;50735;52.060;1.248;2022-08-19T10:51:40;101076.81;;;24.39;36.18
63306;BME280;50735;52.060;1.248;2022-08-19T10:54:07;101075.69;;;25.02;35.05
63306;BME280;50735;52.060;1.248;2022-08-19T10:56:35;101077.32;;;25.47;34.77
63306;BME280;50735;52.060;1.248;2022-08-19T10:59:03;101075.22;;;24.36;35.47
63306;BME280;50735;52.060;1.248;2022-08-19T11:01:31;101073.67;;;25.12;34.53
63306;BME280;50735;52.060;1.248;2022-08-19T11:03:59;101071.54;;;25.43;33.22
63306;BME280;50735;52.060;1.248;2022-08-19T11:06:27;101062.39;;;26.39;32.34
63306;BME280;50735;52.060;1.248;2022-08-19T11:08:54;101074.49;;;26.64;31.52
63306;BME280;50735;52.060;1.248;2022-08-19T11:11:22;101072.64;;;26.73;30.69
63306;BME280;50735;52.060;1.248;2022-08-19T11:13:49;101074.61;;;26.34;31.21
63306;BME280;50735;52.060;1.248;2022-08-19T11:16:18;101068.44;;;27.30;31.03
63306;BME280;50735;52.060;1.248;2022-08-19T11:18:48;101072.99;;;27.45;29.82
63306;BME280;50735;52.060;1.248;2022-08-19T11:21:18;101075.92;;;27.26;30.36
63306;BME280;50735;52.060;1.248;2022-08-19T11:23:47;101081.15;;;26.41;29.69
63306;BME280;50735;52.060;1.248;2022-08-19T11:26:15;101072.04;;;26.36;29.24
63306;BME280;50735;52.060;1.248;2022-08-19T11:28:43;101077.43;;;26.19;29.20
63306;BME280;50735;52.060;1.248;2022-08-19T11:31:11;101078.42;;;26.51;29.39
63306;BME280;50735;52.060;1.248;2022-08-19T11:33:38;101079.20;;;26.98;28.87
63306;BME280;50735;52.060;1.248;2022-08-19T11:36:06;101078.19;;;27.18;28.03
63306;BME280;50735;52.060;1.248;2022-08-19T11:38:33;101078.07;;;27.20;28.43
63306;BME280;50735;52.060;1.248;2022-08-19T11:41:03;101076.74;;;27.73;27.95
63306;BME280;50735;52.060;1.248;2022-08-19T11:43:30;101074.86;;;27.42;27.64
63306;BME280;50735;52.060;1.248;2022-08-19T11:45:57;101072.06;;;27.06;27.72
63306;BME280;50735;52.060;1.248;2022-08-19T11:48:25;101077.56;;;26.37;27.98
63306;BME280;50735;52.060;1.248;2022-08-19T11:50:53;101079.91;;;26.63;27.71
63306;BME280;50735;52.060;1.248;2022-08-19T11:53:20;101083.52;;;26.84;27.25
63306;BME280;50735;52.060;1.248;2022-08-19T11:55:47;101078.49;;;26.50;27.81
63306;BME280;50735;52.060;1.248;2022-08-19T11:58:16;101071.59;;;27.26;27.99
63306;BME280;50735;52.060;1.248;2022-08-19T12:00:44;101082.68;;;26.56;28.54
63306;BME280;50735;52.060;1.248;2022-08-19T12:03:12;101080.73;;;27.31;27.70
63306;BME280;50735;52.060;1.248;2022-08-19T12:05:40;101094.14;;;27.35;27.87
63306;BME280;50735;52.060;1.248;2022-08-19T12:08:07;101083.54;;;28.06;27.21
63306;BME280;50735;52.060;1.248;2022-08-19T12:10:35;101079.32;;;27.34;28.26
63306;BME280;50735;52.060;1.248;2022-08-19T12:13:02;101086.58;;;26.67;28.54
63306;BME280;50735;52.060;1.248;2022-08-19T12:15:29;101089.12;;;26.44;28.49
63306;BME280;50735;52.060;1.248;2022-08-19T12:17:57;101085.58;;;26.38;28.95
63306;BME280;50735;52.060;1.248;2022-08-19T12:20:24;101088.35;;;27.11;28.64
63306;BME280;50735;52.060;1.248;2022-08-19T12:22:51;101090.62;;;26.80;28.63
63306;BME280;50735;52.060;1.248;2022-08-19T12:25:18;101092.69;;;26.74;28.01
63306;BME280;50735;52.060;1.248;2022-08-19T12:27:45;101079.31;;;27.27;27.91
63306;BME280;50735;52.060;1.248;2022-08-19T12:30:13;101080.22;;;26.74;27.99
63306;BME280;50735;52.060;1.248;2022-08-19T12:32:41;101089.42;;;26.31;27.99
63306;BME280;50735;52.060;1.248;2022-08-19T12:35:09;101091.50;;;25.50;28.32
63306;BME280;50735;52.060;1.248;2022-08-19T12:37:37;101088.86;;;25.70;28.57
63306;BME280;50735;52.060;1.248;2022-08-19T12:40:05;101084.16;;;25.58;29.11
63306;BME280;50735;52.060;1.248;2022-08-19T12:42:33;101082.86;;;25.75;29.01
63306;BME280;50735;52.060;1.248;2022-08-19T12:45:00;101083.03;;;25.43;29.00
63306;BME280;50735;52.060;1.248;2022-08-19T12:47:27;101081.77;;;24.70;29.72
63306;BME280;50735;52.060;1.248;2022-08-19T12:49:54;101079.28;;;25.11;29.68
63306;BME280;50735;52.060;1.248;2022-08-19T12:52:23;101084.50;;;24.44;30.16
63306;BME280;50735;52.060;1.248;2022-08-19T12:54:52;101078.44;;;24.51;30.29